Time;durP1;ratioP1;P1;durP2;ratioP2;P2;SDS_P1;SDS_P2;PMS_P1;PMS_P2;Temp;Humidity;BMP_temperature;BMP_pressure;BME280_temperature;BME280_humidity;BME280_pressure;Samples;Min_cycle;Max_cycle;Signal;HPM_P1;HPM_P2
2022/07/28 00:01:30;;;;;;;4.50;1.77;;;17.00;99.90;;;;;;5130613;28;20164;-46
2022/07/28 00:03:55;;;;;;;6.55;1.80;;;17.10;99.90;;;;;;5130533;27;20167;-49
2022/07/28 00:06:21;;;;;;;4.93;1.80;;;17.10;99.90;;;;;;5130843;27;20244;-47
2022/07/28 00:08:46;;;;;;;2.83;1.65;;;17.10;99.90;;;;;;5130967;27;20631;-47
2022/07/28 00:11:12;;;;;;;6.63;2.05;;;17.10;99.90;;;;;;5130748;27;20219;-47
2022/07/28 00:13:38;;;;;;;7.40;1.85;;;17.10;99.90;;;;;;5134028;27;20658;-48
2022/07/28 00:16:04;;;;;;;3.80;1.48;;;16.90;99.90;;;;;;5136400;27;20203;-47
2022/07/28 00:18:29;;;;;;;5.60;1.63;;;17.00;99.90;;;;;;5135864;27;20523;-45
2022/07/28 00:20:56;;;;;;;2.40;1.50;;;17.00;99.90;;;;;;5135862;27;20183;-48
2022/07/28 00:23:22;;;;;;;3.15;1.90;;;17.00;99.90;;;;;;5135757;27;20161;-48
2022/07/28 00:25:48;;;;;;;4.53;1.60;;;17.10;99.90;;;;;;5135791;27;20524;-49
2022/07/28 00:28:13;;;;;;;6.32;2.05;;;17.00;99.90;;;;;;5135733;27;20615;-47
2022/07/28 00:30:39;;;;;;;2.13;1.67;;;17.00;99.90;;;;;;5135665;27;20164;-45
2022/07/28 00:33:04;;;;;;;4.72;1.90;;;17.00;99.90;;;;;;5135929;27;20172;-44
2022/07/28 00:35:30;;;;;;;3.35;1.88;;;17.00;99.90;;;;;;5135516;27;20203;-45
2022/07/28 00:37:56;;;;;;;3.65;2.28;;;17.00;99.90;;;;;;5135578;27;20239;-45
2022/07/28 00:41:09;;;;;;;1.70;1.60;;;17.00;99.90;;;;;;5135541;27;20160;-45
2022/07/28 00:43:07;;;;;;;4.70;1.52;;;16.90;99.90;;;;;;5135283;27;20175;-45
2022/07/28 00:45:32;;;;;;;6.68;1.90;;;16.90;99.90;;;;;;5135794;27;20168;-45
2022/07/28 00:47:58;;;;;;;6.32;2.08;;;16.80;99.90;;;;;;5135301;27;20630;-45
2022/07/28 00:50:24;;;;;;;3.03;2.20;;;16.80;99.90;;;;;;5116812;27;20172;-45
2022/07/28 00:52:50;;;;;;;4.53;2.00;;;16.80;99.90;;;;;;5116825;27;20207;-45
2022/07/28 00:55:17;;;;;;;2.55;1.73;;;16.80;99.90;;;;;;5135231;27;20646;-45
2022/07/28 00:57:43;;;;;;;3.60;1.63;;;16.80;99.90;;;;;;5135274;27;20171;-46
2022/07/28 01:00:09;;;;;;;4.20;1.75;;;16.70;99.90;;;;;;5135143;27;20529;-45
2022/07/28 01:02:35;;;;;;;5.10;1.83;;;16.60;99.90;;;;;;5134463;27;20180;-45
2022/07/28 01:05:01;;;;;;;3.85;1.83;;;16.60;99.90;;;;;;5135377;27;20183;-45
2022/07/28 01:07:35;;;;;;;4.28;1.85;;;16.60;99.90;;;;;;5134925;27;20164;-45
2022/07/28 01:10:25;;;;;;;4.93;2.10;;;16.60;99.90;;;;;;5135327;27;20189;-46
2022/07/28 01:13:16;;;;;;;5.28;1.80;;;16.60;99.90;;;;;;5134905;27;20176;-46
2022/07/28 01:15:52;;;;;;;10.90;2.00;;;16.50;99.90;;;;;;5134750;27;20225;-45
2022/07/28 01:18:23;;;;;;;6.68;2.40;;;16.50;99.90;;;;;;5134860;27;20182;-45
2022/07/28 01:21:20;;;;;;;6.60;1.85;;;16.50;99.90;;;;;;5134752;27;20168;-44
2022/07/28 01:24:09;;;;;;;3.70;1.75;;;16.60;99.90;;;;;;5134277;27;20160;-45
2022/07/28 01:27:03;;;;;;;6.28;1.98;;;16.70;99.90;;;;;;5134691;27;20574;-46
2022/07/28 01:29:50;;;;;;;4.50;1.80;;;16.70;99.90;;;;;;5134512;27;20171;-44
2022/07/28 01:32:20;;;;;;;5.82;1.50;;;16.60;99.90;;;;;;5134708;27;20243;-44
2022/07/28 01:35:10;;;;;;;2.90;1.83;;;16.60;99.90;;;;;;5134474;27;20172;-44
2022/07/28 01:37:54;;;;;;;3.20;1.80;;;16.60;99.90;;;;;;5134535;27;20163;-45
2022/07/28 01:40:24;;;;;;;3.50;1.88;;;16.60;99.90;;;;;;5134368;27;20160;-44
2022/07/28 01:42:54;;;;;;;2.28;1.60;;;16.60;99.90;;;;;;5115884;27;20160;-45
2022/07/28 01:45:22;;;;;;;3.33;1.63;;;16.70;99.90;;;;;;5134479;27;20168;-44
2022/07/28 01:47:50;;;;;;;3.45;1.65;;;16.70;99.90;;;;;;5134226;27;20175;-44
2022/07/28 01:50:19;;;;;;;3.55;2.10;;;16.70;99.90;;;;;;5134114;27;20164;-44
2022/07/28 01:52:47;;;;;;;4.03;2.03;;;16.70;99.90;;;;;;5134122;27;20168;-44
2022/07/28 01:55:15;;;;;;;3.90;1.80;;;16.60;99.90;;;;;;5133979;27;20191;-44
2022/07/28 01:57:42;;;;;;;4.03;1.90;;;16.60;99.90;;;;;;5133920;27;20202;-44
2022/07/28 02:00:10;;;;;;;6.05;1.80;;;16.60;99.90;;;;;;5133896;27;20252;-45
2022/07/28 02:02:37;;;;;;;6.65;1.90;;;16.40;99.90;;;;;;5133910;27;20167;-44
2022/07/28 02:05:05;;;;;;;3.28;1.98;;;16.40;99.90;;;;;;5134254;27;20175;-44
2022/07/28 02:07:32;;;;;;;4.03;1.70;;;16.40;99.90;;;;;;5134149;27;20160;-44
2022/07/28 02:09:59;;;;;;;3.50;1.70;;;16.40;99.90;;;;;;5115701;27;20168;-44
2022/07/28 02:12:26;;;;;;;6.38;1.98;;;16.40;99.90;;;;;;5133569;27;20675;-44
2022/07/28 02:14:53;;;;;;;5.55;2.03;;;16.40;99.90;;;;;;5133580;27;20577;-45
2022/07/28 02:17:24;;;;;;;3.28;1.85;;;16.40;99.90;;;;;;5133619;27;20156;-45
2022/07/28 02:19:51;;;;;;;2.85;1.92;;;16.40;99.90;;;;;;5133779;27;20168;-45
2022/07/28 02:22:19;;;;;;;5.38;1.83;;;16.20;99.90;;;;;;5133583;27;20171;-45
2022/07/28 02:24:45;;;;;;;1.90;1.60;;;16.30;99.90;;;;;;5133510;27;20156;-45
2022/07/28 02:27:25;;;;;;;5.53;1.73;;;16.10;99.90;;;;;;5133711;27;20164;-45
2022/07/28 02:30:09;;;;;;;7.55;2.20;;;16.20;99.90;;;;;;5133384;27;20204;-47
2022/07/28 02:32:55;;;;;;;5.75;2.13;;;16.20;99.90;;;;;;5133394;27;20618;-45
2022/07/28 02:35:29;;;;;;;3.10;1.85;;;16.20;99.90;;;;;;5132917;27;20299;-47
2022/07/28 02:38:06;;;;;;;4.10;1.95;;;16.10;99.90;;;;;;5133251;27;20246;-45
2022/07/28 02:40:37;;;;;;;5.60;1.70;;;16.10;99.90;;;;;;5133638;27;20646;-46
2022/07/28 02:43:07;;;;;;;7.30;1.95;;;16.00;99.90;;;;;;5133653;27;20492;-48
2022/07/28 02:45:36;;;;;;;5.03;1.90;;;16.00;99.90;;;;;;5115668;27;20579;-49
2022/07/28 02:48:06;;;;;;;6.15;1.80;;;16.00;99.90;;;;;;5133533;27;20153;-49
2022/07/28 02:50:31;;;;;;;3.70;1.70;;;16.00;99.90;;;;;;5133379;27;20172;-50
2022/07/28 02:53:03;;;;;;;4.18;1.90;;;16.00;99.90;;;;;;5133085;27;20658;-50
2022/07/28 02:55:29;;;;;;;4.63;2.10;;;16.00;99.90;;;;;;5132887;27;20329;-50
2022/07/28 02:57:57;;;;;;;4.32;2.40;;;15.90;99.90;;;;;;5132954;27;20164;-50
2022/07/28 03:00:23;;;;;;;8.75;2.83;;;15.80;99.90;;;;;;5132983;27;20156;-48
2022/07/28 03:02:50;;;;;;;3.55;2.05;;;15.80;99.90;;;;;;5132798;27;20168;-49
2022/07/28 03:05:16;;;;;;;3.85;2.00;;;15.90;99.90;;;;;;5132928;27;20160;-47
2022/07/28 03:07:42;;;;;;;4.05;2.08;;;15.80;99.90;;;;;;5132872;27;20698;-48
2022/07/28 03:10:16;;;;;;;6.65;2.65;;;15.80;99.90;;;;;;5132726;27;20167;-49
2022/07/28 03:12:41;;;;;;;5.50;2.28;;;15.80;99.90;;;;;;5132840;27;20176;-49
2022/07/28 03:15:07;;;;;;;5.50;2.00;;;15.80;99.90;;;;;;5132642;27;20535;-48
2022/07/28 03:17:33;;;;;;;2.30;1.85;;;15.80;99.90;;;;;;5133161;27;20171;-49
2022/07/28 03:19:58;;;;;;;5.68;1.90;;;15.80;99.90;;;;;;5132714;27;20160;-49
2022/07/28 03:22:24;;;;;;;5.28;2.60;;;15.80;99.90;;;;;;5114328;28;20250;-49
2022/07/28 03:24:53;;;;;;;5.40;2.20;;;15.80;99.90;;;;;;5132746;27;20156;-50
2022/07/28 03:27:26;;;;;;;5.78;2.40;;;15.70;99.90;;;;;;5132885;27;20216;-49
2022/07/28 03:29:57;;;;;;;2.75;2.08;;;15.70;99.90;;;;;;5132693;28;20160;-49
2022/07/28 03:32:24;;;;;;;6.03;2.50;;;15.70;99.90;;;;;;5132867;27;20171;-48
2022/07/28 03:34:51;;;;;;;2.28;1.58;;;15.70;99.90;;;;;;5132471;27;20297;-48
2022/07/28 03:37:24;;;;;;;3.42;1.80;;;15.60;99.90;;;;;;5132889;27;20179;-47
2022/07/28 03:39:53;;;;;;;6.93;1.90;;;15.60;99.90;;;;;;5132582;27;20255;-48
2022/07/28 03:42:20;;;;;;;7.05;1.90;;;15.60;99.90;;;;;;5132517;27;20308;-47
2022/07/28 03:44:46;;;;;;;10.80;2.05;;;15.60;99.90;;;;;;5132560;27;20167;-45
2022/07/28 03:47:13;;;;;;;5.18;2.00;;;15.50;99.90;;;;;;5132557;27;20538;-47
2022/07/28 03:49:39;;;;;;;3.35;2.10;;;15.50;99.90;;;;;;5136609;27;20263;-48
2022/07/28 03:52:05;;;;;;;6.60;2.00;;;15.40;99.90;;;;;;5136591;27;20599;-45
2022/07/28 03:54:31;;;;;;;5.18;2.00;;;15.40;99.90;;;;;;5137026;27;20178;-47
2022/07/28 03:56:56;;;;;;;2.67;1.88;;;15.30;99.90;;;;;;5136326;27;20208;-47
2022/07/28 03:59:22;;;;;;;4.30;2.50;;;15.40;99.90;;;;;;5136359;27;20615;-45
2022/07/28 04:01:48;;;;;;;6.20;2.40;;;15.30;99.90;;;;;;5136585;27;20593;-48
2022/07/28 04:04:13;;;;;;;5.65;2.25;;;15.20;99.90;;;;;;5136290;27;20167;-46
2022/07/28 04:06:39;;;;;;;3.75;2.45;;;15.30;99.90;;;;;;5136268;27;20263;-46
2022/07/28 04:09:05;;;;;;;4.28;2.67;;;15.20;99.90;;;;;;5136227;27;20179;-47
2022/07/28 04:11:30;;;;;;;4.20;2.33;;;15.20;99.90;;;;;;5135977;27;20216;-46
2022/07/28 04:13:56;;;;;;;5.93;2.92;;;15.20;99.90;;;;;;5136010;27;20590;-47
2022/07/28 04:16:22;;;;;;;6.45;2.58;;;15.20;99.90;;;;;;5135848;27;20287;-48
2022/07/28 04:18:47;;;;;;;5.72;2.60;;;15.20;99.90;;;;;;5136161;27;20176;-46
2022/07/28 04:21:14;;;;;;;4.15;2.47;;;15.20;99.90;;;;;;5135865;27;20239;-45
2022/07/28 04:23:39;;;;;;;7.53;2.80;;;15.20;99.90;;;;;;5135821;27;20164;-46
2022/07/28 04:26:05;;;;;;;7.10;2.63;;;15.30;99.90;;;;;;5136040;27;20179;-45
2022/07/28 04:28:31;;;;;;;5.63;2.28;;;15.20;99.90;;;;;;5136099;27;20206;-44
2022/07/28 04:30:56;;;;;;;3.15;2.38;;;15.30;99.90;;;;;;5135942;27;20197;-44
2022/07/28 04:33:22;;;;;;;7.82;2.67;;;15.30;99.90;;;;;;5117394;27;20164;-44
2022/07/28 04:35:47;;;;;;;3.85;2.85;;;15.30;99.90;;;;;;5135704;27;20562;-44
2022/07/28 04:38:13;;;;;;;3.83;2.80;;;15.30;99.90;;;;;;5135714;27;20174;-44
2022/07/28 04:40:41;;;;;;;8.23;2.78;;;15.40;99.90;;;;;;5135589;27;20230;-44
2022/07/28 04:43:07;;;;;;;7.57;2.42;;;15.30;99.90;;;;;;5135400;27;20171;-44
2022/07/28 04:45:33;;;;;;;6.93;2.80;;;15.40;99.90;;;;;;5135777;27;20175;-44
2022/07/28 04:47:58;;;;;;;4.40;2.90;;;15.50;99.90;;;;;;5135912;27;20259;-44
2022/07/28 04:50:24;;;;;;;6.93;2.78;;;15.50;99.90;;;;;;5135243;27;20244;-44
2022/07/28 04:52:50;;;;;;;4.40;2.65;;;15.50;99.90;;;;;;5135297;27;20189;-44
2022/07/28 04:55:16;;;;;;;5.53;2.90;;;15.50;99.90;;;;;;5135331;27;20202;-45
2022/07/28 04:57:42;;;;;;;4.32;2.25;;;15.50;99.90;;;;;;5135179;27;20209;-45
2022/07/28 05:00:12;;;;;;;8.15;2.47;;;15.60;99.90;;;;;;5134920;27;20168;-44
2022/07/28 05:02:39;;;;;;;10.05;2.63;;;15.60;99.90;;;;;;5135305;27;20263;-45
2022/07/28 05:05:04;;;;;;;4.20;2.75;;;15.60;99.90;;;;;;5135045;27;20611;-44
2022/07/28 05:07:30;;;;;;;6.32;2.80;;;15.60;99.90;;;;;;5135465;27;20195;-44
2022/07/28 05:09:56;;;;;;;7.20;2.40;;;15.70;99.90;;;;;;5132457;27;20506;-45
2022/07/28 05:12:21;;;;;;;16.25;3.33;;;15.70;99.90;;;;;;5150406;27;20211;-45
2022/07/28 05:14:47;;;;;;;4.10;2.30;;;15.90;99.90;;;;;;5154091;27;20170;-45
2022/07/28 05:17:13;;;;;;;7.65;2.90;;;16.00;99.90;;;;;;5154330;27;20183;-45
2022/07/28 05:19:39;;;;;;;8.73;2.42;;;16.10;99.90;;;;;;5153997;27;20179;-45
2022/07/28 05:22:04;;;;;;;2.83;2.50;;;16.20;99.90;;;;;;5154004;27;20250;-44
2022/07/28 05:24:30;;;;;;;4.13;2.70;;;16.30;99.90;;;;;;5154250;27;20163;-43
2022/07/28 05:26:56;;;;;;;6.57;2.40;;;16.50;99.90;;;;;;5154262;27;20242;-45
2022/07/28 05:29:22;;;;;;;4.35;2.22;;;16.60;99.90;;;;;;5153886;27;20686;-46
2022/07/28 05:31:47;;;;;;;6.85;2.22;;;16.50;99.90;;;;;;5153740;27;20163;-42
2022/07/28 05:34:13;;;;;;;2.95;2.35;;;16.50;99.90;;;;;;5153760;27;20167;-43
2022/07/28 05:36:39;;;;;;;8.57;2.80;;;16.70;99.90;;;;;;5153893;27;20264;-44
2022/07/28 05:39:05;;;;;;;8.45;2.28;;;16.70;99.90;;;;;;5153668;27;20499;-48
2022/07/28 05:41:30;;;;;;;9.98;2.47;;;16.70;99.90;;;;;;5154214;27;20212;-45
2022/07/28 05:43:57;;;;;;;4.25;2.28;;;16.80;99.90;;;;;;5153537;27;20164;-43
2022/07/28 05:46:23;;;;;;;4.63;2.38;;;16.80;99.90;;;;;;5153841;27;20171;-42
2022/07/28 05:48:49;;;;;;;4.72;2.40;;;16.90;99.90;;;;;;5153545;27;20264;-44
2022/07/28 05:51:15;;;;;;;4.78;2.15;;;17.00;99.90;;;;;;5153744;27;20164;-50
2022/07/28 05:53:40;;;;;;;3.63;2.25;;;17.20;99.90;;;;;;5153246;27;20637;-45
2022/07/28 05:56:06;;;;;;;6.95;2.25;;;17.10;99.90;;;;;;5153264;27;20203;-46
2022/07/28 05:58:31;;;;;;;7.05;2.50;;;17.10;99.90;;;;;;5153656;27;20167;-45
2022/07/28 06:01:01;;;;;;;4.78;2.80;;;17.10;99.90;;;;;;5153230;27;20614;-45
2022/07/28 06:03:29;;;;;;;3.63;1.90;;;17.10;99.90;;;;;;5153252;27;20171;-44
2022/07/28 06:05:55;;;;;;;6.18;2.53;;;17.10;99.90;;;;;;5153371;27;20186;-44
2022/07/28 06:08:23;;;;;;;6.95;2.55;;;17.20;99.90;;;;;;5153060;27;20160;-52
2022/07/28 06:11:00;;;;;;;7.07;2.70;;;17.20;99.90;;;;;;5152324;27;20267;-50
2022/07/28 06:13:26;;;;;;;5.68;2.20;;;17.30;99.90;;;;;;5153242;27;20162;-51
2022/07/28 06:15:52;;;;;;;7.72;2.50;;;17.30;99.90;;;;;;5152808;27;20214;-50
2022/07/28 06:18:19;;;;;;;3.60;2.00;;;17.20;99.90;;;;;;5153967;27;20179;-50
2022/07/28 06:20:45;;;;;;;5.40;2.03;;;17.20;99.90;;;;;;5154282;27;20231;-51
2022/07/28 06:23:11;;;;;;;9.98;2.35;;;17.30;99.90;;;;;;5154159;27;20638;-50
2022/07/28 06:25:37;;;;;;;2.83;2.03;;;17.40;99.90;;;;;;5154139;27;20163;-50
2022/07/28 06:28:03;;;;;;;5.72;2.38;;;17.40;99.90;;;;;;5154529;27;20169;-49
2022/07/28 06:30:30;;;;;;;5.28;2.47;;;17.60;99.90;;;;;;5154462;27;20178;-51
2022/07/28 06:32:56;;;;;;;3.75;2.28;;;18.00;99.90;;;;;;5154277;27;20266;-50
2022/07/28 06:35:21;;;;;;;5.32;2.53;;;18.10;99.90;;;;;;5153897;27;20209;-51
2022/07/28 06:37:50;;;;;;;7.07;2.53;;;17.80;99.90;;;;;;5154014;27;20241;-50
2022/07/28 06:40:17;;;;;;;5.05;2.20;;;18.00;99.90;;;;;;5153958;27;20186;-50
2022/07/28 06:42:43;;;;;;;4.65;2.35;;;18.20;99.90;;;;;;5135359;27;20578;-49
2022/07/28 06:45:10;;;;;;;7.53;2.60;;;18.20;99.90;;;;;;5153935;27;20714;-50
2022/07/28 06:47:36;;;;;;;6.68;2.33;;;18.40;99.90;;;;;;5154099;27;20184;-50
2022/07/28 06:50:02;;;;;;;6.88;2.30;;;18.60;99.90;;;;;;5154389;27;20191;-50
2022/07/28 06:52:28;;;;;;;6.15;2.10;;;18.70;99.90;;;;;;5154436;27;20600;-50
2022/07/28 06:54:54;;;;;;;7.65;2.25;;;18.80;99.90;;;;;;5153674;27;20186;-50
2022/07/28 06:57:20;;;;;;;5.25;2.65;;;18.90;99.90;;;;;;5153638;27;20262;-50
2022/07/28 06:59:47;;;;;;;5.38;2.17;;;18.80;99.90;;;;;;5153779;27;20246;-50
2022/07/28 07:02:13;;;;;;;6.07;2.20;;;18.90;99.90;;;;;;5153667;27;20650;-50
2022/07/28 07:04:39;;;;;;;7.22;2.10;;;19.00;99.90;;;;;;5153668;27;20206;-50
2022/07/28 07:07:04;;;;;;;4.25;2.10;;;19.00;99.90;;;;;;5153636;27;20162;-48
2022/07/28 07:09:30;;;;;;;4.72;1.90;;;19.00;99.90;;;;;;5153844;27;20676;-50
2022/07/28 07:11:56;;;;;;;4.00;2.15;;;19.10;99.90;;;;;;5153402;27;20211;-50
2022/07/28 07:14:21;;;;;;;3.33;2.17;;;19.30;99.90;;;;;;5153491;27;20171;-50
2022/07/28 07:16:47;;;;;;;6.35;2.22;;;19.40;99.90;;;;;;5153444;27;20207;-49
2022/07/28 07:19:13;;;;;;;4.70;2.47;;;19.10;99.90;;;;;;5153715;27;20254;-49
2022/07/28 07:21:38;;;;;;;7.22;2.20;;;19.00;99.90;;;;;;5153499;27;20652;-49
2022/07/28 07:24:04;;;;;;;7.40;2.53;;;19.20;99.90;;;;;;5156632;27;20159;-50
2022/07/28 07:26:30;;;;;;;5.82;2.72;;;19.20;99.90;;;;;;5158249;27;20167;-50
2022/07/28 07:28:55;;;;;;;6.60;2.60;;;19.40;99.90;;;;;;5157688;27;20163;-45
2022/07/28 07:31:21;;;;;;;7.65;2.30;;;19.40;99.90;;;;;;5157630;27;20250;-49
2022/07/28 07:33:46;;;;;;;7.18;2.50;;;19.50;99.90;;;;;;5157598;27;20171;-48
2022/07/28 07:36:12;;;;;;;10.50;2.50;;;19.50;99.90;;;;;;5157500;27;20585;-48
2022/07/28 07:38:38;;;;;;;6.95;2.30;;;19.60;99.90;;;;;;5157373;27;20166;-45
2022/07/28 07:41:04;;;;;;;7.10;2.60;;;19.50;99.90;;;;;;5157681;27;20175;-50
2022/07/28 07:43:30;;;;;;;3.90;2.30;;;19.60;99.90;;;;;;5157711;27;20171;-47
2022/07/28 07:45:55;;;;;;;9.48;2.70;;;19.80;99.90;;;;;;5157348;27;20163;-47
2022/07/28 07:48:21;;;;;;;8.88;2.15;;;19.80;99.90;;;;;;5157280;27;20155;-49
2022/07/28 07:50:46;;;;;;;5.07;2.25;;;19.80;99.90;;;;;;5157289;27;20160;-50
2022/07/28 07:53:12;;;;;;;3.50;2.33;;;19.80;99.90;;;;;;5157517;27;20622;-50
2022/07/28 07:55:38;;;;;;;4.88;2.50;;;19.80;99.90;;;;;;5138613;27;20666;-47
2022/07/28 07:58:04;;;;;;;5.80;2.25;;;20.00;99.90;;;;;;5157107;27;20163;-45
2022/07/28 08:00:30;;;;;;;9.98;2.47;;;20.10;99.90;;;;;;5157513;27;20246;-45
2022/07/28 08:02:57;;;;;;;9.35;2.85;;;20.30;99.90;;;;;;5157017;27;20202;-47
2022/07/28 08:05:23;;;;;;;5.90;2.70;;;20.50;99.90;;;;;;5156881;27;20721;-45
2022/07/28 08:07:48;;;;;;;7.15;2.80;;;20.50;99.90;;;;;;5156891;27;20194;-47
2022/07/28 08:10:14;;;;;;;6.28;2.65;;;20.30;99.90;;;;;;5156716;27;20202;-45
2022/07/28 08:12:39;;;;;;;4.78;2.17;;;20.10;99.90;;;;;;5156821;27;20255;-44
2022/07/28 08:15:06;;;;;;;7.68;2.47;;;20.30;99.90;;;;;;5156796;27;20206;-45
2022/07/28 08:17:32;;;;;;;4.05;2.50;;;20.70;99.90;;;;;;5157003;27;20163;-46
2022/07/28 08:19:57;;;;;;;7.05;2.70;;;20.80;99.90;;;;;;5156716;27;20186;-45
2022/07/28 08:22:23;;;;;;;6.20;2.83;;;20.70;99.90;;;;;;5156615;27;20235;-44
2022/07/28 08:24:49;;;;;;;4.20;2.40;;;21.00;99.90;;;;;;5156913;27;20536;-44
2022/07/28 08:27:14;;;;;;;4.65;2.85;;;21.20;99.90;;;;;;5156508;27;20567;-45
2022/07/28 08:29:40;;;;;;;5.38;2.67;;;21.10;99.90;;;;;;5156522;27;20164;-45
2022/07/28 08:32:06;;;;;;;5.00;2.45;;;21.20;99.90;;;;;;5156374;27;20190;-44
2022/07/28 08:34:33;;;;;;;6.68;2.63;;;21.10;99.90;;;;;;5156161;27;20623;-45
2022/07/28 08:37:00;;;;;;;8.18;2.50;;;21.10;99.90;;;;;;5156716;27;20201;-45
2022/07/28 08:39:26;;;;;;;4.75;2.15;;;21.20;99.90;;;;;;5156236;27;20173;-44
2022/07/28 08:42:17;;;;;;;3.10;2.33;;;21.20;99.90;;;;;;5137623;27;20175;-45
2022/07/28 08:45:02;;;;;;;7.13;2.63;;;21.10;99.90;;;;;;5156505;27;20196;-44
2022/07/28 08:47:30;;;;;;;4.55;2.53;;;21.40;99.90;;;;;;5156335;27;20239;-44
2022/07/28 08:49:58;;;;;;;6.47;2.50;;;21.60;99.90;;;;;;5156183;27;20171;-45
2022/07/28 08:52:27;;;;;;;6.53;2.10;;;21.60;99.90;;;;;;5156394;27;20570;-44
2022/07/28 08:54:55;;;;;;;6.28;2.60;;;21.90;99.90;;;;;;5155940;27;20188;-44
2022/07/28 08:57:33;;;;;;;6.13;2.80;;;22.00;99.90;;;;;;5155914;27;20642;-44
2022/07/28 08:59:59;;;;;;;4.78;2.40;;;22.30;99.90;;;;;;5156718;27;20552;-44
2022/07/28 09:02:25;;;;;;;8.13;2.35;;;22.30;99.90;;;;;;5156121;27;20248;-44
2022/07/28 09:04:53;;;;;;;7.82;2.45;;;22.10;99.90;;;;;;5155980;27;20186;-44
2022/07/28 09:07:19;;;;;;;5.95;2.58;;;22.30;99.90;;;;;;5155818;27;20169;-44
2022/07/28 09:09:47;;;;;;;7.18;2.70;;;22.50;99.90;;;;;;5155757;27;20156;-45
2022/07/28 09:12:13;;;;;;;8.10;3.17;;;22.70;99.90;;;;;;5155621;27;20678;-45
2022/07/28 09:14:39;;;;;;;6.05;2.70;;;22.90;99.90;;;;;;5155910;27;20175;-47
2022/07/28 09:17:05;;;;;;;3.92;2.38;;;22.70;99.90;;;;;;5155482;27;20230;-46
2022/07/28 09:19:31;;;;;;;4.47;2.20;;;22.70;99.90;;;;;;5155910;27;20655;-44
2022/07/28 09:21:58;;;;;;;6.07;2.20;;;22.90;99.90;;;;;;5155795;27;20163;-48
2022/07/28 09:24:36;;;;;;;7.90;2.35;;;23.00;99.90;;;;;;5155855;27;20513;-48
2022/07/28 09:27:05;;;;;;;6.28;2.42;;;23.10;99.90;;;;;;5156377;27;20239;-48
2022/07/28 09:29:31;;;;;;;5.13;2.35;;;23.20;99.90;;;;;;5155691;27;20163;-47
2022/07/28 09:31:57;;;;;;;5.88;2.25;;;23.10;99.90;;;;;;5155400;27;20159;-47
2022/07/28 09:34:23;;;;;;;3.90;2.22;;;23.30;99.90;;;;;;5155835;27;20175;-45
2022/07/28 09:36:49;;;;;;;6.20;2.00;;;23.30;99.90;;;;;;5155406;27;20561;-49
2022/07/28 09:39:35;;;;;;;6.63;2.13;;;23.40;99.90;;;;;;5155573;27;20167;-47
2022/07/28 09:42:01;;;;;;;9.30;2.25;;;23.30;99.90;;;;;;5155874;27;20190;-46
2022/07/28 09:44:27;;;;;;;4.28;1.95;;;23.60;99.90;;;;;;5155611;27;20163;-48
2022/07/28 09:46:54;;;;;;;4.50;2.00;;;23.80;99.90;;;;;;5154632;27;20167;-50
2022/07/28 09:49:20;;;;;;;6.97;2.13;;;23.50;99.90;;;;;;5155500;27;20159;-48
2022/07/28 09:52:06;;;;;;;6.82;1.80;;;23.60;99.90;;;;;;5155171;27;20164;-47
2022/07/28 09:54:32;;;;;;;4.07;1.73;;;23.70;99.90;;;;;;5155590;27;20270;-45
2022/07/28 09:56:58;;;;;;;4.38;1.52;;;23.90;99.90;;;;;;5155547;27;20195;-45
2022/07/28 09:59:24;;;;;;;4.60;1.70;;;24.00;99.90;;;;;;5136895;27;20163;-46
2022/07/28 10:01:59;;;;;;;4.03;1.92;;;23.90;99.90;;;;;;5154671;27;20171;-45
2022/07/28 10:04:29;;;;;;;2.67;1.70;;;24.10;99.90;;;;;;5155031;27;20548;-45
2022/07/28 10:07:10;;;;;;;6.10;1.90;;;24.10;99.90;;;;;;5136200;27;20549;-48
2022/07/28 10:09:37;;;;;;;5.85;1.95;;;24.30;99.90;;;;;;5136407;27;20170;-47
2022/07/28 10:12:20;;;;;;;2.88;1.50;;;24.50;99.90;;;;;;5154554;27;20561;-47
2022/07/28 10:14:47;;;;;;;3.80;1.77;;;24.50;99.90;;;;;;5154922;27;20204;-48
2022/07/28 10:17:28;;;;;;;3.53;1.80;;;24.00;99.90;;;;;;5136122;27;20207;-49
2022/07/28 10:20:05;;;;;;;2.55;1.77;;;24.30;99.90;;;;;;5154332;27;20618;-50
2022/07/28 10:22:33;;;;;;;4.80;1.67;;;24.40;99.90;;;;;;5154478;27;20174;-46
2022/07/28 10:25:11;;;;;;;4.25;1.67;;;24.50;99.30;;;;;;5154766;27;20179;-49
2022/07/28 10:27:40;;;;;;;5.18;1.55;;;24.30;99.90;;;;;;5154140;27;20630;-50
2022/07/28 10:30:06;;;;;;;4.45;1.60;;;24.60;99.90;;;;;;5154187;27;20159;-50
2022/07/28 10:32:37;;;;;;;7.90;2.30;;;24.50;99.90;;;;;;5154650;27;20606;-49
2022/07/28 10:35:06;;;;;;;3.83;1.92;;;24.80;99.90;;;;;;5153917;27;20175;-46
2022/07/28 10:37:37;;;;;;;1.73;1.58;;;24.80;98.90;;;;;;5154303;27;20163;-45
2022/07/28 10:40:09;;;;;;;3.75;1.90;;;24.80;98.30;;;;;;5154005;27;20171;-49
2022/07/28 10:42:37;;;;;;;5.65;1.92;;;24.70;98.10;;;;;;5153888;27;20167;-50
2022/07/28 10:45:04;;;;;;;2.70;1.70;;;24.70;99.10;;;;;;5153872;27;20155;-46
2022/07/28 10:47:29;;;;;;;4.78;1.50;;;24.80;98.30;;;;;;5154284;27;20182;-47
2022/07/28 10:49:55;;;;;;;6.93;1.95;;;25.00;99.00;;;;;;5153884;27;20246;-48
2022/07/28 10:52:23;;;;;;;4.47;1.73;;;25.20;97.60;;;;;;5153815;27;20622;-48
2022/07/28 10:55:11;;;;;;;4.22;1.63;;;25.00;95.70;;;;;;5153801;27;20174;-49
2022/07/28 10:57:49;;;;;;;3.67;1.40;;;25.10;95.10;;;;;;5153433;27;20236;-46
2022/07/28 11:00:20;;;;;;;4.30;1.40;;;25.40;95.00;;;;;;5153693;27;20630;-47
2022/07/28 11:02:54;;;;;;;2.90;1.70;;;25.50;94.10;;;;;;5153645;27;20211;-49
2022/07/28 11:05:33;;;;;;;2.88;1.33;;;25.80;94.10;;;;;;5153513;27;20155;-48
2022/07/28 11:08:06;;;;;;;5.38;1.77;;;25.80;94.80;;;;;;5153894;27;20625;-48
2022/07/28 11:10:52;;;;;;;7.10;2.00;;;26.00;95.60;;;;;;5153397;27;20195;-46
2022/07/28 11:13:24;;;;;;;5.50;1.90;;;26.00;95.70;;;;;;5153766;27;20219;-47
2022/07/28 11:15:50;;;;;;;4.43;1.52;;;26.00;94.90;;;;;;5153634;27;20243;-50
2022/07/28 11:18:16;;;;;;;4.68;1.40;;;26.00;94.30;;;;;;5153405;27;20163;-50
2022/07/28 11:20:55;;;;;;;7.43;2.10;;;26.10;94.00;;;;;;5153427;27;20227;-49
2022/07/28 11:23:37;;;;;;;6.90;1.95;;;26.20;94.10;;;;;;5153316;27;20166;-50
2022/07/28 11:26:22;;;;;;;2.80;1.60;;;26.40;93.90;;;;;;5153758;27;20560;-48
2022/07/28 11:28:56;;;;;;;7.30;1.90;;;26.00;92.40;;;;;;5153652;27;20171;-48
2022/07/28 11:31:44;;;;;;;7.40;1.90;;;26.10;91.20;;;;;;5153353;27;20163;-48
2022/07/28 11:34:16;;;;;;;7.53;1.90;;;26.00;92.00;;;;;;5153595;27;20163;-49
2022/07/28 11:36:57;;;;;;;3.95;1.70;;;26.00;91.40;;;;;;5153254;27;20247;-49
2022/07/28 11:39:31;;;;;;;4.93;1.80;;;26.00;91.90;;;;;;5153349;27;20163;-50
2022/07/28 11:41:57;;;;;;;4.28;1.58;;;26.20;91.60;;;;;;5153662;27;20502;-49
2022/07/28 11:44:30;;;;;;;3.42;1.40;;;26.30;91.10;;;;;;5153161;27;20258;-49
2022/07/28 11:47:31;;;;;;;2.17;1.42;;;26.70;89.80;;;;;;5153164;27;20212;-49
2022/07/28 11:50:14;;;;;;;3.95;1.50;;;26.90;90.60;;;;;;5049568;28;20257;-48
2022/07/28 11:52:52;;;;;;;3.28;1.65;;;27.00;88.80;;;;;;5143773;27;20268;-48
2022/07/28 11:55:18;;;;;;;1.90;1.50;;;27.10;88.00;;;;;;5153293;27;20281;-50
2022/07/28 11:57:45;;;;;;;2.90;1.70;;;26.60;88.70;;;;;;5153203;27;20250;-50
2022/07/28 12:00:18;;;;;;;6.03;1.80;;;26.50;88.30;;;;;;5153045;27;20152;-50
2022/07/28 12:02:43;;;;;;;2.88;1.50;;;26.50;89.60;;;;;;5153484;27;20167;-50
2022/07/28 12:05:11;;;;;;;3.67;1.48;;;26.80;90.20;;;;;;5153038;27;20170;-48
2022/07/28 12:07:49;;;;;;;5.40;1.80;;;26.60;88.10;;;;;;5153041;27;20155;-49
2022/07/28 12:10:29;;;;;;;5.50;1.42;;;26.90;86.70;;;;;;5156190;27;20579;-49
2022/07/28 12:13:06;;;;;;;2.60;1.50;;;26.90;86.30;;;;;;5156872;27;20175;-47
2022/07/28 12:15:33;;;;;;;3.00;1.70;;;27.00;85.80;;;;;;5156975;27;20559;-48
2022/07/28 12:17:59;;;;;;;2.40;1.50;;;27.20;87.00;;;;;;5139250;27;20171;-46
2022/07/28 12:20:33;;;;;;;3.60;1.60;;;27.20;87.60;;;;;;5157124;27;20189;-48
2022/07/28 12:23:06;;;;;;;2.42;1.50;;;27.50;87.70;;;;;;5157700;27;20167;-47
2022/07/28 12:25:45;;;;;;;2.63;1.48;;;27.40;86.20;;;;;;5157270;27;20175;-48
2022/07/28 12:28:21;;;;;;;3.58;1.60;;;27.80;86.30;;;;;;5156766;27;20163;-49
2022/07/28 12:30:50;;;;;;;3.70;1.60;;;28.10;85.70;;;;;;5157026;27;20166;-50
2022/07/28 12:33:17;;;;;;;4.72;1.75;;;27.90;85.30;;;;;;5157072;27;20163;-48
2022/07/28 12:35:44;;;;;;;4.97;1.55;;;28.10;85.40;;;;;;5138541;27;20677;-48
2022/07/28 12:38:10;;;;;;;2.08;1.65;;;27.50;84.00;;;;;;5157087;27;20166;-50
2022/07/28 12:40:38;;;;;;;2.70;1.75;;;27.40;86.00;;;;;;5156488;27;20681;-50
2022/07/28 12:43:04;;;;;;;4.70;1.48;;;27.40;83.90;;;;;;5156785;27;20159;-45
2022/07/28 12:45:32;;;;;;;2.83;1.60;;;27.50;83.60;;;;;;5156711;27;20155;-46
2022/07/28 12:48:07;;;;;;;3.08;1.75;;;27.60;83.40;;;;;;5156614;27;20219;-45
2022/07/28 12:50:37;;;;;;;2.17;1.60;;;27.70;85.40;;;;;;5120944;27;20215;-48
2022/07/28 12:53:08;;;;;;;3.92;1.65;;;28.20;81.90;;;;;;5156446;27;20165;-46
2022/07/28 12:55:34;;;;;;;3.67;1.30;;;28.60;83.30;;;;;;5156177;27;20658;-47